sensor_id;sensor_type;location;lat;lon;timestamp;temperature;humidity
20081;DHT22;10200;49.232;9.222;2022-11-21T00:00:28;7.20;99.90
20081;DHT22;10200;49.232;9.222;2022-11-21T00:02:53;7.20;99.90
20081;DHT22;10200;49.232;9.222;2022-11-21T00:05:21;7.30;99.90
20081;DHT22;10200;49.232;9.222;2022-11-21T00:07:47;7.30;99.90
20081;DHT22;10200;49.232;9.222;2022-11-21T00:10:14;7.20;99.90
20081;DHT22;10200;49.232;9.222;2022-11-21T00:12:39;7.20;99.90
20081;DHT22;10200;49.232;9.222;2022-11-21T00:15:05;7.20;99.90
20081;DHT22;10200;49.232;9.222;2022-11-21T00:17:31;7.20;99.90
20081;DHT22;10200;49.232;9.222;2022-11-21T00:19:56;7.30;99.90
20081;DHT22;10200;49.232;9.222;2022-11-21T00:22:22;7.20;99.90
20081;DHT22;10200;49.232;9.222;2022-11-21T00:24:47;7.20;99.90
20081;DHT22;10200;49.232;9.222;2022-11-21T00:27:13;7.20;99.90
20081;DHT22;10200;49.232;9.222;2022-11-21T00:29:38;7.20;99.90
20081;DHT22;10200;49.232;9.222;2022-11-21T00:32:04;7.20;99.90
20081;DHT22;10200;49.232;9.222;2022-11-21T00:34:29;7.20;99.90
20081;DHT22;10200;49.232;9.222;2022-11-21T00:36:55;7.20;99.90
20081;DHT22;10200;49.232;9.222;2022-11-21T00:39:20;7.20;99.90
20081;DHT22;10200;49.232;9.222;2022-11-21T00:41:46;7.20;99.90
20081;DHT22;10200;49.232;9.222;2022-11-21T00:44:11;7.20;99.90
20081;DHT22;10200;49.232;9.222;2022-11-21T00:46:37;7.20;99.90
20081;DHT22;10200;49.232;9.222;2022-11-21T00:49:02;7.20;99.90
20081;DHT22;10200;49.232;9.222;2022-11-21T00:51:28;7.30;99.90
20081;DHT22;10200;49.232;9.222;2022-11-21T00:53:54;7.30;99.90
20081;DHT22;10200;49.232;9.222;2022-11-21T00:56:19;7.30;99.90
20081;DHT22;10200;49.232;9.222;2022-11-21T00:58:45;7.30;99.90
20081;DHT22;10200;49.232;9.222;2022-11-21T01:01:13;7.30;99.90
20081;DHT22;10200;49.232;9.222;2022-11-21T01:03:39;7.40;99.90
20081;DHT22;10200;49.232;9.222;2022-11-21T01:06:07;7.30;99.90
20081;DHT22;10200;49.232;9.222;2022-11-21T01:08:37;7.30;99.90
20081;DHT22;10200;49.232;9.222;2022-11-21T01:11:05;7.30;99.90
20081;DHT22;10200;49.232;9.222;2022-11-21T01:13:32;7.30;99.90
20081;DHT22;10200;49.232;9.222;2022-11-21T01:16:08;7.30;99.90
20081;DHT22;10200;49.232;9.222;2022-11-21T01:18:34;7.30;99.90
20081;DHT22;10200;49.232;9.222;2022-11-21T01:21:12;7.30;99.90
20081;DHT22;10200;49.232;9.222;2022-11-21T01:23:38;7.20;99.90
20081;DHT22;10200;49.232;9.222;2022-11-21T01:26:06;7.20;99.90
20081;DHT22;10200;49.232;9.222;2022-11-21T01:28:32;7.20;99.90
20081;DHT22;10200;49.232;9.222;2022-11-21T01:31:15;7.20;99.90
20081;DHT22;10200;49.232;9.222;2022-11-21T01:33:41;7.20;99.90
20081;DHT22;10200;49.232;9.222;2022-11-21T01:38:33;7.20;99.90
20081;DHT22;10200;49.232;9.222;2022-11-21T01:40:59;7.20;99.90
20081;DHT22;10200;49.232;9.222;2022-11-21T01:43:24;7.20;99.90
20081;DHT22;10200;49.232;9.222;2022-11-21T01:45:58;7.20;99.90
20081;DHT22;10200;49.232;9.222;2022-11-21T01:48:38;7.20;99.90
20081;DHT22;10200;49.232;9.222;2022-11-21T01:53:45;7.20;99.90
20081;DHT22;10200;49.232;9.222;2022-11-21T01:56:13;7.20;99.90
20081;DHT22;10200;49.232;9.222;2022-11-21T01:58:40;7.20;99.90
20081;DHT22;10200;49.232;9.222;2022-11-21T02:01:07;7.20;99.90
20081;DHT22;10200;49.232;9.222;2022-11-21T02:03:34;7.30;99.90
20081;DHT22;10200;49.232;9.222;2022-11-21T02:06:01;7.30;99.90
20081;DHT22;10200;49.232;9.222;2022-11-21T02:08:27;7.30;99.90
20081;DHT22;10200;49.232;9.222;2022-11-21T02:13:32;7.30;99.90
20081;DHT22;10200;49.232;9.222;2022-11-21T02:15:58;7.30;99.90
20081;DHT22;10200;49.232;9.222;2022-11-21T02:18:23;7.30;99.90
20081;DHT22;10200;49.232;9.222;2022-11-21T02:20:54;7.30;99.90
20081;DHT22;10200;49.232;9.222;2022-11-21T02:25:58;7.30;99.90
20081;DHT22;10200;49.232;9.222;2022-11-21T02:28:24;7.30;99.90
20081;DHT22;10200;49.232;9.222;2022-11-21T02:30:51;7.30;99.90
20081;DHT22;10200;49.232;9.222;2022-11-21T02:33:16;7.30;99.90
20081;DHT22;10200;49.232;9.222;2022-11-21T02:35:42;7.30;99.90
20081;DHT22;10200;49.232;9.222;2022-11-21T02:38:17;7.30;99.90
20081;DHT22;10200;49.232;9.222;2022-11-21T02:41:15;7.20;99.90
20081;DHT22;10200;49.232;9.222;2022-11-21T02:43:49;7.20;99.90
20081;DHT22;10200;49.232;9.222;2022-11-21T02:46:17;7.20;99.90
20081;DHT22;10200;49.232;9.222;2022-11-21T02:48:42;7.20;99.90
20081;DHT22;10200;49.232;9.222;2022-11-21T02:51:08;7.20;99.90
20081;DHT22;10200;49.232;9.222;2022-11-21T02:53:34;7.20;99.90
20081;DHT22;10200;49.232;9.222;2022-11-21T02:55:59;7.20;99.90
20081;DHT22;10200;49.232;9.222;2022-11-21T02:58:25;7.20;99.90
20081;DHT22;10200;49.232;9.222;2022-11-21T03:00:50;7.20;99.90
20081;DHT22;10200;49.232;9.222;2022-11-21T03:03:16;7.20;99.90
20081;DHT22;10200;49.232;9.222;2022-11-21T03:05:42;7.20;99.90
20081;DHT22;10200;49.232;9.222;2022-11-21T03:08:07;7.20;99.90
20081;DHT22;10200;49.232;9.222;2022-11-21T03:10:33;7.20;99.90
20081;DHT22;10200;49.232;9.222;2022-11-21T03:12:59;7.20;99.90
20081;DHT22;10200;49.232;9.222;2022-11-21T03:15:30;7.20;99.90
20081;DHT22;10200;49.232;9.222;2022-11-21T03:17:56;7.20;99.90
20081;DHT22;10200;49.232;9.222;2022-11-21T03:20:22;7.20;99.90
20081;DHT22;10200;49.232;9.222;2022-11-21T03:22:47;7.20;99.90
20081;DHT22;10200;49.232;9.222;2022-11-21T03:25:14;7.20;99.90
20081;DHT22;10200;49.232;9.222;2022-11-21T03:27:40;7.20;99.90
20081;DHT22;10200;49.232;9.222;2022-11-21T03:30:06;7.10;99.90
20081;DHT22;10200;49.232;9.222;2022-11-21T03:32:32;7.10;99.90
20081;DHT22;10200;49.232;9.222;2022-11-21T03:34:57;7.20;99.90
20081;DHT22;10200;49.232;9.222;2022-11-21T03:37:23;7.20;99.90
20081;DHT22;10200;49.232;9.222;2022-11-21T03:39:48;7.10;99.90
20081;DHT22;10200;49.232;9.222;2022-11-21T03:42:14;7.20;99.90
20081;DHT22;10200;49.232;9.222;2022-11-21T03:44:40;7.10;99.90
20081;DHT22;10200;49.232;9.222;2022-11-21T03:47:06;7.20;99.90
20081;DHT22;10200;49.232;9.222;2022-11-21T03:49:31;7.10;99.90
20081;DHT22;10200;49.232;9.222;2022-11-21T03:51:57;7.10;99.90
20081;DHT22;10200;49.232;9.222;2022-11-21T03:54:22;7.10;99.90
20081;DHT22;10200;49.232;9.222;2022-11-21T03:56:48;7.10;99.90
20081;DHT22;10200;49.232;9.222;2022-11-21T03:59:13;7.20;99.90
20081;DHT22;10200;49.232;9.222;2022-11-21T04:01:39;7.10;99.90
20081;DHT22;10200;49.232;9.222;2022-11-21T04:04:04;7.20;99.90
20081;DHT22;10200;49.232;9.222;2022-11-21T04:06:30;7.20;99.90
20081;DHT22;10200;49.232;9.222;2022-11-21T04:08:56;7.10;99.90
20081;DHT22;10200;49.232;9.222;2022-11-21T04:11:21;7.20;99.90
20081;DHT22;10200;49.232;9.222;2022-11-21T04:13:49;7.10;99.90
20081;DHT22;10200;49.232;9.222;2022-11-21T04:16:15;7.20;99.90
20081;DHT22;10200;49.232;9.222;2022-11-21T04:18:40;7.20;99.90
20081;DHT22;10200;49.232;9.222;2022-11-21T04:21:07;7.20;99.90
20081;DHT22;10200;49.232;9.222;2022-11-21T04:23:33;7.20;99.90
20081;DHT22;10200;49.232;9.222;2022-11-21T04:25:59;7.20;99.90
20081;DHT22;10200;49.232;9.222;2022-11-21T04:28:24;7.30;99.90
20081;DHT22;10200;49.232;9.222;2022-11-21T04:30:50;7.20;99.90
20081;DHT22;10200;49.232;9.222;2022-11-21T04:33:17;7.30;99.90
20081;DHT22;10200;49.232;9.222;2022-11-21T04:35:43;7.30;99.90
20081;DHT22;10200;49.232;9.222;2022-11-21T04:38:10;7.20;99.90
20081;DHT22;10200;49.232;9.222;2022-11-21T04:40:35;7.20;99.90
20081;DHT22;10200;49.232;9.222;2022-11-21T04:43:01;7.30;99.90
20081;DHT22;10200;49.232;9.222;2022-11-21T04:45:27;7.20;99.90
20081;DHT22;10200;49.232;9.222;2022-11-21T04:47:53;7.20;99.90
20081;DHT22;10200;49.232;9.222;2022-11-21T04:50:19;7.30;99.90
20081;DHT22;10200;49.232;9.222;2022-11-21T04:52:49;7.30;99.90
20081;DHT22;10200;49.232;9.222;2022-11-21T04:55:15;7.30;99.90
20081;DHT22;10200;49.232;9.222;2022-11-21T04:57:41;7.30;99.90
20081;DHT22;10200;49.232;9.222;2022-11-21T05:00:07;7.30;99.90
20081;DHT22;10200;49.232;9.222;2022-11-21T05:02:33;7.30;99.90
20081;DHT22;10200;49.232;9.222;2022-11-21T05:04:58;7.30;99.90
20081;DHT22;10200;49.232;9.222;2022-11-21T05:07:24;7.30;99.90
20081;DHT22;10200;49.232;9.222;2022-11-21T05:09:49;7.30;99.90
20081;DHT22;10200;49.232;9.222;2022-11-21T05:12:15;7.30;99.90
20081;DHT22;10200;49.232;9.222;2022-11-21T05:14:59;7.30;99.90
20081;DHT22;10200;49.232;9.222;2022-11-21T05:17:29;7.30;99.90
20081;DHT22;10200;49.232;9.222;2022-11-21T05:19:55;7.30;99.90
20081;DHT22;10200;49.232;9.222;2022-11-21T05:22:20;7.30;99.90
20081;DHT22;10200;49.232;9.222;2022-11-21T05:24:46;7.30;99.90
20081;DHT22;10200;49.232;9.222;2022-11-21T05:27:11;7.40;99.90
20081;DHT22;10200;49.232;9.222;2022-11-21T05:29:37;7.40;99.90
20081;DHT22;10200;49.232;9.222;2022-11-21T05:32:02;7.30;99.90
20081;DHT22;10200;49.232;9.222;2022-11-21T05:34:28;7.30;99.90
20081;DHT22;10200;49.232;9.222;2022-11-21T05:36:54;7.40;99.90
20081;DHT22;10200;49.232;9.222;2022-11-21T05:39:21;7.40;99.90
20081;DHT22;10200;49.232;9.222;2022-11-21T05:41:47;7.40;99.90
20081;DHT22;10200;49.232;9.222;2022-11-21T05:44:13;7.40;99.90
20081;DHT22;10200;49.232;9.222;2022-11-21T05:46:38;7.40;99.90
20081;DHT22;10200;49.232;9.222;2022-11-21T05:49:04;7.40;99.90
20081;DHT22;10200;49.232;9.222;2022-11-21T05:51:29;7.40;99.90
20081;DHT22;10200;49.232;9.222;2022-11-21T05:53:55;7.40;99.90
20081;DHT22;10200;49.232;9.222;2022-11-21T05:56:20;7.40;99.90
20081;DHT22;10200;49.232;9.222;2022-11-21T05:58:46;7.40;99.90
20081;DHT22;10200;49.232;9.222;2022-11-21T06:01:13;7.40;99.90
20081;DHT22;10200;49.232;9.222;2022-11-21T06:03:40;7.40;99.90
20081;DHT22;10200;49.232;9.222;2022-11-21T06:06:13;7.40;99.90
20081;DHT22;10200;49.232;9.222;2022-11-21T06:08:41;7.40;99.90
20081;DHT22;10200;49.232;9.222;2022-11-21T06:11:08;7.40;99.90
20081;DHT22;10200;49.232;9.222;2022-11-21T06:13:35;7.40;99.90
20081;DHT22;10200;49.232;9.222;2022-11-21T06:16:02;7.40;99.90
20081;DHT22;10200;49.232;9.222;2022-11-21T06:18:30;7.40;99.90
20081;DHT22;10200;49.232;9.222;2022-11-21T06:21:05;7.40;99.90
20081;DHT22;10200;49.232;9.222;2022-11-21T06:23:32;7.40;99.90
20081;DHT22;10200;49.232;9.222;2022-11-21T06:26:00;7.50;99.90
20081;DHT22;10200;49.232;9.222;2022-11-21T06:28:29;7.40;99.90
20081;DHT22;10200;49.232;9.222;2022-11-21T06:30:56;7.40;99.90
20081;DHT22;10200;49.232;9.222;2022-11-21T06:33:22;7.50;99.90
20081;DHT22;10200;49.232;9.222;2022-11-21T06:35:47;7.50;99.90
20081;DHT22;10200;49.232;9.222;2022-11-21T06:38:13;7.50;99.90
20081;DHT22;10200;49.232;9.222;2022-11-21T06:40:39;7.50;99.90
20081;DHT22;10200;49.232;9.222;2022-11-21T06:43:05;7.50;99.90
20081;DHT22;10200;49.232;9.222;2022-11-21T06:45:30;7.50;99.90
20081;DHT22;10200;49.232;9.222;2022-11-21T06:47:56;7.40;99.90
20081;DHT22;10200;49.232;9.222;2022-11-21T06:50:21;7.40;99.90
20081;DHT22;10200;49.232;9.222;2022-11-21T06:52:47;7.40;99.90
20081;DHT22;10200;49.232;9.222;2022-11-21T06:55:13;7.40;99.90
20081;DHT22;10200;49.232;9.222;2022-11-21T06:57:39;7.40;99.90
20081;DHT22;10200;49.232;9.222;2022-11-21T07:00:05;7.40;99.90
20081;DHT22;10200;49.232;9.222;2022-11-21T07:02:31;7.40;99.90
20081;DHT22;10200;49.232;9.222;2022-11-21T07:04:57;7.40;99.90
20081;DHT22;10200;49.232;9.222;2022-11-21T07:07:22;7.40;99.90
20081;DHT22;10200;49.232;9.222;2022-11-21T07:09:48;7.40;99.90
20081;DHT22;10200;49.232;9.222;2022-11-21T07:12:14;7.40;99.90
20081;DHT22;10200;49.232;9.222;2022-11-21T07:14:58;7.40;99.90
20081;DHT22;10200;49.232;9.222;2022-11-21T07:17:24;7.40;99.90
20081;DHT22;10200;49.232;9.222;2022-11-21T07:19:49;7.40;99.90
20081;DHT22;10200;49.232;9.222;2022-11-21T07:22:15;7.40;99.90
20081;DHT22;10200;49.232;9.222;2022-11-21T07:24:40;7.40;99.90
20081;DHT22;10200;49.232;9.222;2022-11-21T07:27:06;7.50;99.90
20081;DHT22;10200;49.232;9.222;2022-11-21T07:29:31;7.50;99.90
20081;DHT22;10200;49.232;9.222;2022-11-21T07:31:57;7.50;99.90
20081;DHT22;10200;49.232;9.222;2022-11-21T07:34:22;7.50;99.90
20081;DHT22;10200;49.232;9.222;2022-11-21T07:36:48;7.60;99.90
20081;DHT22;10200;49.232;9.222;2022-11-21T07:39:13;7.60;99.90
20081;DHT22;10200;49.232;9.222;2022-11-21T07:41:39;7.60;99.90
20081;DHT22;10200;49.232;9.222;2022-11-21T07:44:04;7.60;99.90
20081;DHT22;10200;49.232;9.222;2022-11-21T07:46:30;7.60;99.90
20081;DHT22;10200;49.232;9.222;2022-11-21T07:48:56;7.60;99.90
20081;DHT22;10200;49.232;9.222;2022-11-21T07:51:21;7.60;99.90
20081;DHT22;10200;49.232;9.222;2022-11-21T07:53:47;7.70;99.90
20081;DHT22;10200;49.232;9.222;2022-11-21T07:56:12;7.70;99.90
20081;DHT22;10200;49.232;9.222;2022-11-21T07:58:38;7.70;99.90
20081;DHT22;10200;49.232;9.222;2022-11-21T08:01:06;7.80;99.90
20081;DHT22;10200;49.232;9.222;2022-11-21T08:03:32;8.10;99.90
20081;DHT22;10200;49.232;9.222;2022-11-21T08:06:00;8.20;99.90
20081;DHT22;10200;49.232;9.222;2022-11-21T08:08:27;8.30;99.90
20081;DHT22;10200;49.232;9.222;2022-11-21T08:10:53;8.10;99.90
20081;DHT22;10200;49.232;9.222;2022-11-21T08:13:18;8.10;99.90
20081;DHT22;10200;49.232;9.222;2022-11-21T08:15:44;8.10;99.90
20081;DHT22;10200;49.232;9.222;2022-11-21T08:18:15;8.10;99.90
20081;DHT22;10200;49.232;9.222;2022-11-21T08:20:43;8.00;99.90
20081;DHT22;10200;49.232;9.222;2022-11-21T08:23:09;8.00;99.90
20081;DHT22;10200;49.232;9.222;2022-11-21T08:25:39;7.90;99.90
20081;DHT22;10200;49.232;9.222;2022-11-21T08:28:06;7.90;99.90
20081;DHT22;10200;49.232;9.222;2022-11-21T08:30:32;8.00;99.90
20081;DHT22;10200;49.232;9.222;2022-11-21T08:32:59;8.00;99.90
20081;DHT22;10200;49.232;9.222;2022-11-21T08:35:28;8.00;99.90
20081;DHT22;10200;49.232;9.222;2022-11-21T08:37:58;8.00;99.90
20081;DHT22;10200;49.232;9.222;2022-11-21T08:40:25;8.10;99.90
20081;DHT22;10200;49.232;9.222;2022-11-21T08:43:03;8.10;99.90
20081;DHT22;10200;49.232;9.222;2022-11-21T08:45:29;8.10;99.90
20081;DHT22;10200;49.232;9.222;2022-11-21T08:47:55;8.10;99.90
20081;DHT22;10200;49.232;9.222;2022-11-21T08:50:23;8.20;99.90
20081;DHT22;10200;49.232;9.222;2022-11-21T08:52:48;8.20;99.90
20081;DHT22;10200;49.232;9.222;2022-11-21T08:55:14;8.30;99.90
20081;DHT22;10200;49.232;9.222;2022-11-21T08:57:40;8.30;99.90
20081;DHT22;10200;49.232;9.222;2022-11-21T09:00:08;8.40;99.90
20081;DHT22;10200;49.232;9.222;2022-11-21T09:02:35;8.40;99.90
20081;DHT22;10200;49.232;9.222;2022-11-21T09:05:00;8.40;99.90
20081;DHT22;10200;49.232;9.222;2022-11-21T09:07:26;8.40;99.90
20081;DHT22;10200;49.232;9.222;2022-11-21T09:09:51;8.40;99.90
20081;DHT22;10200;49.232;9.222;2022-11-21T09:12:17;8.40;99.90
20081;DHT22;10200;49.232;9.222;2022-11-21T09:14:42;8.40;99.90
20081;DHT22;10200;49.232;9.222;2022-11-21T09:17:27;8.40;99.90
20081;DHT22;10200;49.232;9.222;2022-11-21T09:20:11;8.30;99.90
20081;DHT22;10200;49.232;9.222;2022-11-21T09:22:36;8.30;99.90
20081;DHT22;10200;49.232;9.222;2022-11-21T09:25:02;8.30;99.90
20081;DHT22;10200;49.232;9.222;2022-11-21T09:27:29;8.40;99.90
20081;DHT22;10200;49.232;9.222;2022-11-21T09:29:55;8.50;99.90
20081;DHT22;10200;49.232;9.222;2022-11-21T09:32:20;8.50;99.90
20081;DHT22;10200;49.232;9.222;2022-11-21T09:34:46;8.60;99.90
20081;DHT22;10200;49.232;9.222;2022-11-21T09:37:12;8.70;99.90
20081;DHT22;10200;49.232;9.222;2022-11-21T09:39:37;8.80;99.90
20081;DHT22;10200;49.232;9.222;2022-11-21T09:42:25;8.80;99.90
20081;DHT22;10200;49.232;9.222;2022-11-21T09:45:03;8.90;99.90
20081;DHT22;10200;49.232;9.222;2022-11-21T09:47:41;9.00;99.90
20081;DHT22;10200;49.232;9.222;2022-11-21T09:53:24;9.20;99.90
20081;DHT22;10200;49.232;9.222;2022-11-21T09:56:09;9.30;99.90
20081;DHT22;10200;49.232;9.222;2022-11-21T09:58:44;9.50;99.90
20081;DHT22;10200;49.232;9.222;2022-11-21T10:01:14;9.70;99.90
20081;DHT22;10200;49.232;9.222;2022-11-21T10:03:45;9.70;99.90
20081;DHT22;10200;49.232;9.222;2022-11-21T10:06:29;9.80;99.90
20081;DHT22;10200;49.232;9.222;2022-11-21T10:09:23;9.80;99.90
20081;DHT22;10200;49.232;9.222;2022-11-21T10:26:39;9.60;99.90
20081;DHT22;10200;49.232;9.222;2022-11-21T10:29:19;9.70;99.90
20081;DHT22;10200;49.232;9.222;2022-11-21T10:31:48;9.80;99.90
20081;DHT22;10200;49.232;9.222;2022-11-21T10:34:21;9.80;99.90
20081;DHT22;10200;49.232;9.222;2022-11-21T10:36:51;9.90;99.90
20081;DHT22;10200;49.232;9.222;2022-11-21T10:39:57;9.90;99.90
20081;DHT22;10200;49.232;9.222;2022-11-21T10:42:37;9.90;99.90
20081;DHT22;10200;49.232;9.222;2022-11-21T10:45:07;9.90;99.90
20081;DHT22;10200;49.232;9.222;2022-11-21T10:47:42;9.90;99.90
20081;DHT22;10200;49.232;9.222;2022-11-21T10:52:38;9.80;99.90
20081;DHT22;10200;49.232;9.222;2022-11-21T10:55:17;9.90;99.90
20081;DHT22;10200;49.232;9.222;2022-11-21T10:57:50;10.00;99.90
20081;DHT22;10200;49.232;9.222;2022-11-21T11:00:20;10.00;99.90
20081;DHT22;10200;49.232;9.222;2022-11-21T11:05:22;10.30;99.90
20081;DHT22;10200;49.232;9.222;2022-11-21T11:08:09;10.30;99.90
20081;DHT22;10200;49.232;9.222;2022-11-21T11:10:43;10.30;99.90
20081;DHT22;10200;49.232;9.222;2022-11-21T11:13:17;10.30;99.90
20081;DHT22;10200;49.232;9.222;2022-11-21T11:18:58;10.20;99.90
20081;DHT22;10200;49.232;9.222;2022-11-21T11:27:20;9.80;99.90
20081;DHT22;10200;49.232;9.222;2022-11-21T11:29:30;9.80;99.90
20081;DHT22;10200;49.232;9.222;2022-11-21T11:34:50;9.80;99.90
20081;DHT22;10200;49.232;9.222;2022-11-21T11:37:24;9.80;99.90
20081;DHT22;10200;49.232;9.222;2022-11-21T11:42:52;9.80;99.90
20081;DHT22;10200;49.232;9.222;2022-11-21T11:48:53;9.80;99.90
20081;DHT22;10200;49.232;9.222;2022-11-21T11:51:29;9.80;99.90
20081;DHT22;10200;49.232;9.222;2022-11-21T11:54:00;9.80;99.90
20081;DHT22;10200;49.232;9.222;2022-11-21T11:56:31;9.80;99.90
20081;DHT22;10200;49.232;9.222;2022-11-21T11:59:14;9.90;99.90
20081;DHT22;10200;49.232;9.222;2022-11-21T12:01:57;9.90;99.90
20081;DHT22;10200;49.232;9.222;2022-11-21T12:04:27;10.10;99.90
20081;DHT22;10200;49.232;9.222;2022-11-21T12:06:57;10.10;99.90
20081;DHT22;10200;49.232;9.222;2022-11-21T12:12:27;10.20;99.80
20081;DHT22;10200;49.232;9.222;2022-11-21T12:23:39;10.20;98.30
20081;DHT22;10200;49.232;9.222;2022-11-21T12:36:59;10.30;97.50
20081;DHT22;10200;49.232;9.222;2022-11-21T12:42:58;10.00;97.50
20081;DHT22;10200;49.232;9.222;2022-11-21T12:45:48;9.90;97.50
20081;DHT22;10200;49.232;9.222;2022-11-21T12:48:39;9.90;98.50
20081;DHT22;10200;49.232;9.222;2022-11-21T12:51:50;9.80;99.00
20081;DHT22;10200;49.232;9.222;2022-11-21T12:57:40;9.80;99.90
20081;DHT22;10200;49.232;9.222;2022-11-21T13:00:27;9.90;99.90
20081;DHT22;10200;49.232;9.222;2022-11-21T13:06:18;9.90;99.90
20081;DHT22;10200;49.232;9.222;2022-11-21T13:08:47;9.90;99.90
20081;DHT22;10200;49.232;9.222;2022-11-21T13:27:41;10.30;99.90
20081;DHT22;10200;49.232;9.222;2022-11-21T13:32:45;10.20;99.90
20081;DHT22;10200;49.232;9.222;2022-11-21T13:37:59;10.10;99.90
20081;DHT22;10200;49.232;9.222;2022-11-21T13:45:47;10.00;99.90
20081;DHT22;10200;49.232;9.222;2022-11-21T13:56:54;10.20;99.90
20081;DHT22;10200;49.232;9.222;2022-11-21T14:07:30;10.30;99.90
20081;DHT22;10200;49.232;9.222;2022-11-21T14:09:59;10.30;99.90
20081;DHT22;10200;49.232;9.222;2022-11-21T14:12:32;10.30;99.90
20081;DHT22;10200;49.232;9.222;2022-11-21T14:20:28;10.40;99.90
20081;DHT22;10200;49.232;9.222;2022-11-21T14:25:53;10.30;99.90
20081;DHT22;10200;49.232;9.222;2022-11-21T14:28:33;10.30;99.90
20081;DHT22;10200;49.232;9.222;2022-11-21T14:31:06;10.20;99.90
20081;DHT22;10200;49.232;9.222;2022-11-21T14:33:34;10.20;99.80
20081;DHT22;10200;49.232;9.222;2022-11-21T14:36:07;10.10;99.70
20081;DHT22;10200;49.232;9.222;2022-11-21T14:46:39;10.00;99.90
20081;DHT22;10200;49.232;9.222;2022-11-21T14:49:16;9.90;99.50
20081;DHT22;10200;49.232;9.222;2022-11-21T14:51:43;9.90;99.90
20081;DHT22;10200;49.232;9.222;2022-11-21T14:54:15;9.80;99.90
20081;DHT22;10200;49.232;9.222;2022-11-21T14:56:42;9.60;99.60
20081;DHT22;10200;49.232;9.222;2022-11-21T14:59:41;9.50;99.90
20081;DHT22;10200;49.232;9.222;2022-11-21T15:02:16;9.50;99.90
20081;DHT22;10200;49.232;9.222;2022-11-21T15:04:42;9.40;99.90
20081;DHT22;10200;49.232;9.222;2022-11-21T15:07:18;9.40;99.90
20081;DHT22;10200;49.232;9.222;2022-11-21T15:09:45;9.30;99.90
20081;DHT22;10200;49.232;9.222;2022-11-21T15:12:11;9.30;99.90
20081;DHT22;10200;49.232;9.222;2022-11-21T15:15:01;9.20;99.90
20081;DHT22;10200;49.232;9.222;2022-11-21T15:17:29;9.20;99.90
20081;DHT22;10200;49.232;9.222;2022-11-21T15:22:38;9.00;99.90
20081;DHT22;10200;49.232;9.222;2022-11-21T15:25:30;8.90;99.90
20081;DHT22;10200;49.232;9.222;2022-11-21T15:30:29;8.70;99.90
20081;DHT22;10200;49.232;9.222;2022-11-21T15:38:23;8.50;99.90
20081;DHT22;10200;49.232;9.222;2022-11-21T15:43:43;8.40;99.90
20081;DHT22;10200;49.232;9.222;2022-11-21T15:46:16;8.40;99.90
20081;DHT22;10200;49.232;9.222;2022-11-21T15:48:46;8.40;99.90
20081;DHT22;10200;49.232;9.222;2022-11-21T15:51:12;8.30;99.90
20081;DHT22;10200;49.232;9.222;2022-11-21T15:53:38;8.30;99.90
20081;DHT22;10200;49.232;9.222;2022-11-21T15:56:04;8.20;99.90
20081;DHT22;10200;49.232;9.222;2022-11-21T15:58:30;8.20;99.90
20081;DHT22;10200;49.232;9.222;2022-11-21T16:00:56;8.20;99.90
20081;DHT22;10200;49.232;9.222;2022-11-21T16:03:22;8.10;99.90
20081;DHT22;10200;49.232;9.222;2022-11-21T16:05:48;8.10;99.90
20081;DHT22;10200;49.232;9.222;2022-11-21T16:08:13;8.00;99.90
20081;DHT22;10200;49.232;9.222;2022-11-21T16:10:42;8.00;99.90
20081;DHT22;10200;49.232;9.222;2022-11-21T16:13:09;7.90;99.90
20081;DHT22;10200;49.232;9.222;2022-11-21T16:15:35;7.90;99.90
20081;DHT22;10200;49.232;9.222;2022-11-21T16:20:27;7.70;99.90
20081;DHT22;10200;49.232;9.222;2022-11-21T16:22:53;7.70;99.90
20081;DHT22;10200;49.232;9.222;2022-11-21T16:25:19;7.60;99.90
20081;DHT22;10200;49.232;9.222;2022-11-21T16:27:44;7.60;99.90
20081;DHT22;10200;49.232;9.222;2022-11-21T16:30:10;7.60;99.90
20081;DHT22;10200;49.232;9.222;2022-11-21T16:32:36;7.50;99.90
20081;DHT22;10200;49.232;9.222;2022-11-21T16:35:02;7.40;99.90
20081;DHT22;10200;49.232;9.222;2022-11-21T16:37:30;7.40;99.90
20081;DHT22;10200;49.232;9.222;2022-11-21T16:39:56;7.30;99.90
20081;DHT22;10200;49.232;9.222;2022-11-21T16:42:21;7.30;99.90
20081;DHT22;10200;49.232;9.222;2022-11-21T16:44:47;7.20;99.90
20081;DHT22;10200;49.232;9.222;2022-11-21T16:47:13;7.20;99.90
20081;DHT22;10200;49.232;9.222;2022-11-21T16:49:38;7.20;99.90
20081;DHT22;10200;49.232;9.222;2022-11-21T16:52:09;7.20;99.90
20081;DHT22;10200;49.232;9.222;2022-11-21T16:54:35;7.10;99.90
20081;DHT22;10200;49.232;9.222;2022-11-21T16:57:00;7.10;99.90
20081;DHT22;10200;49.232;9.222;2022-11-21T16:59:26;7.10;99.90
20081;DHT22;10200;49.232;9.222;2022-11-21T17:01:51;7.00;99.90
20081;DHT22;10200;49.232;9.222;2022-11-21T17:04:17;7.00;99.90
20081;DHT22;10200;49.232;9.222;2022-11-21T17:06:43;7.00;99.90
20081;DHT22;10200;49.232;9.222;2022-11-21T17:09:09;6.90;99.90
20081;DHT22;10200;49.232;9.222;2022-11-21T17:11:35;6.90;99.90
20081;DHT22;10200;49.232;9.222;2022-11-21T17:14:03;6.90;99.90
20081;DHT22;10200;49.232;9.222;2022-11-21T17:16:29;6.90;99.90
20081;DHT22;10200;49.232;9.222;2022-11-21T17:18:59;6.90;99.90
20081;DHT22;10200;49.232;9.222;2022-11-21T17:21:26;6.90;99.90
20081;DHT22;10200;49.232;9.222;2022-11-21T17:23:52;6.90;99.90
20081;DHT22;10200;49.232;9.222;2022-11-21T17:26:21;6.80;99.90
20081;DHT22;10200;49.232;9.222;2022-11-21T17:28:58;6.80;99.90
20081;DHT22;10200;49.232;9.222;2022-11-21T17:31:24;6.70;99.90
20081;DHT22;10200;49.232;9.222;2022-11-21T17:33:50;6.70;99.90
20081;DHT22;10200;49.232;9.222;2022-11-21T17:36:18;6.60;99.90
20081;DHT22;10200;49.232;9.222;2022-11-21T17:38:44;6.60;99.90
20081;DHT22;10200;49.232;9.222;2022-11-21T17:41:13;6.50;99.90
20081;DHT22;10200;49.232;9.222;2022-11-21T17:43:39;6.50;99.90
20081;DHT22;10200;49.232;9.222;2022-11-21T17:46:08;6.50;99.90
20081;DHT22;10200;49.232;9.222;2022-11-21T17:48:35;6.50;99.90
20081;DHT22;10200;49.232;9.222;2022-11-21T17:51:15;6.50;99.90
20081;DHT22;10200;49.232;9.222;2022-11-21T17:53:43;6.50;99.90
20081;DHT22;10200;49.232;9.222;2022-11-21T17:56:11;6.50;99.90
20081;DHT22;10200;49.232;9.222;2022-11-21T17:58:38;6.50;99.90
20081;DHT22;10200;49.232;9.222;2022-11-21T18:01:04;6.50;99.90
20081;DHT22;10200;49.232;9.222;2022-11-21T18:03:31;6.50;99.90
20081;DHT22;10200;49.232;9.222;2022-11-21T18:06:09;6.50;99.90
20081;DHT22;10200;49.232;9.222;2022-11-21T18:08:36;6.50;99.90
20081;DHT22;10200;49.232;9.222;2022-11-21T18:11:04;6.50;99.90
20081;DHT22;10200;49.232;9.222;2022-11-21T18:13:31;6.50;99.90
20081;DHT22;10200;49.232;9.222;2022-11-21T18:16:01;6.50;99.90
20081;DHT22;10200;49.232;9.222;2022-11-21T18:18:29;6.50;99.90
20081;DHT22;10200;49.232;9.222;2022-11-21T18:21:00;6.50;99.90
20081;DHT22;10200;49.232;9.222;2022-11-21T18:23:26;6.50;99.90
20081;DHT22;10200;49.232;9.222;2022-11-21T18:25:52;6.50;99.90
20081;DHT22;10200;49.232;9.222;2022-11-21T18:28:17;6.60;99.90
20081;DHT22;10200;49.232;9.222;2022-11-21T18:30:43;6.60;99.90
20081;DHT22;10200;49.232;9.222;2022-11-21T18:33:08;6.70;99.90